sensor_id;sensor_type;location;lat;lon;timestamp;P1;durP1;ratioP1;P2;durP2;ratioP2
73585;SDS011;61865;50.232;18.614;2023-02-01T00:01:05;57.65;;;18.85;;
73585;SDS011;61865;50.232;18.614;2023-02-01T00:03:28;41.17;;;14.90;;
73585;SDS011;61865;50.232;18.614;2023-02-01T00:05:55;12.68;;;7.35;;
73585;SDS011;61865;50.232;18.614;2023-02-01T00:08:19;10.77;;;5.80;;
73585;SDS011;61865;50.232;18.614;2023-02-01T00:10:41;12.65;;;5.30;;
73585;SDS011;61865;50.232;18.614;2023-02-01T00:13:03;6.25;;;3.95;;
73585;SDS011;61865;50.232;18.614;2023-02-01T00:15:25;7.28;;;4.20;;
73585;SDS011;61865;50.232;18.614;2023-02-01T00:17:47;9.27;;;4.90;;
73585;SDS011;61865;50.232;18.614;2023-02-01T00:20:09;9.50;;;4.55;;
73585;SDS011;61865;50.232;18.614;2023-02-01T00:22:32;7.07;;;3.97;;
73585;SDS011;61865;50.232;18.614;2023-02-01T00:24:55;7.55;;;4.72;;
73585;SDS011;61865;50.232;18.614;2023-02-01T00:27:17;8.38;;;4.40;;
73585;SDS011;61865;50.232;18.614;2023-02-01T00:29:41;6.22;;;4.10;;
73585;SDS011;61865;50.232;18.614;2023-02-01T00:32:03;6.95;;;4.22;;
73585;SDS011;61865;50.232;18.614;2023-02-01T00:34:25;5.57;;;3.80;;
73585;SDS011;61865;50.232;18.614;2023-02-01T00:36:47;6.95;;;4.32;;
73585;SDS011;61865;50.232;18.614;2023-02-01T00:39:10;7.47;;;4.35;;
73585;SDS011;61865;50.232;18.614;2023-02-01T00:41:33;6.07;;;3.70;;
73585;SDS011;61865;50.232;18.614;2023-02-01T00:43:55;6.57;;;3.65;;
73585;SDS011;61865;50.232;18.614;2023-02-01T00:46:18;7.53;;;3.60;;
73585;SDS011;61865;50.232;18.614;2023-02-01T00:48:41;5.32;;;3.33;;
73585;SDS011;61865;50.232;18.614;2023-02-01T00:51:05;9.40;;;3.72;;
73585;SDS011;61865;50.232;18.614;2023-02-01T00:53:28;5.25;;;3.00;;
73585;SDS011;61865;50.232;18.614;2023-02-01T00:55:50;5.55;;;3.30;;
73585;SDS011;61865;50.232;18.614;2023-02-01T00:58:14;3.75;;;2.50;;
73585;SDS011;61865;50.232;18.614;2023-02-01T01:00:36;6.28;;;2.90;;
73585;SDS011;61865;50.232;18.614;2023-02-01T01:02:58;3.22;;;2.42;;
73585;SDS011;61865;50.232;18.614;2023-02-01T01:05:20;5.22;;;2.70;;
73585;SDS011;61865;50.232;18.614;2023-02-01T01:07:42;2.70;;;2.08;;
73585;SDS011;61865;50.232;18.614;2023-02-01T01:10:04;5.15;;;2.83;;
73585;SDS011;61865;50.232;18.614;2023-02-01T01:12:27;3.90;;;2.42;;
73585;SDS011;61865;50.232;18.614;2023-02-01T01:14:50;6.03;;;2.50;;
73585;SDS011;61865;50.232;18.614;2023-02-01T01:17:12;5.30;;;2.90;;
73585;SDS011;61865;50.232;18.614;2023-02-01T01:19:34;7.32;;;2.90;;
73585;SDS011;61865;50.232;18.614;2023-02-01T01:21:56;15.23;;;2.90;;
73585;SDS011;61865;50.232;18.614;2023-02-01T01:24:18;4.60;;;2.25;;
73585;SDS011;61865;50.232;18.614;2023-02-01T01:26:39;13.90;;;2.55;;
73585;SDS011;61865;50.232;18.614;2023-02-01T01:29:02;9.75;;;2.78;;
73585;SDS011;61865;50.232;18.614;2023-02-01T01:31:25;10.40;;;3.10;;
73585;SDS011;61865;50.232;18.614;2023-02-01T01:33:48;8.98;;;2.88;;
73585;SDS011;61865;50.232;18.614;2023-02-01T01:36:11;13.15;;;2.90;;
73585;SDS011;61865;50.232;18.614;2023-02-01T01:38:34;5.43;;;2.15;;
73585;SDS011;61865;50.232;18.614;2023-02-01T01:40:56;4.07;;;2.30;;
73585;SDS011;61865;50.232;18.614;2023-02-01T01:43:19;8.38;;;2.25;;
73585;SDS011;61865;50.232;18.614;2023-02-01T01:45:42;6.95;;;2.40;;
73585;SDS011;61865;50.232;18.614;2023-02-01T01:48:07;4.72;;;2.40;;
73585;SDS011;61865;50.232;18.614;2023-02-01T01:50:33;3.03;;;2.15;;
73585;SDS011;61865;50.232;18.614;2023-02-01T01:52:58;13.85;;;2.50;;
73585;SDS011;61865;50.232;18.614;2023-02-01T01:55:24;8.13;;;2.50;;
73585;SDS011;61865;50.232;18.614;2023-02-01T01:57:48;4.25;;;2.10;;
73585;SDS011;61865;50.232;18.614;2023-02-01T02:00:15;4.15;;;2.50;;
73585;SDS011;61865;50.232;18.614;2023-02-01T02:02:41;2.42;;;2.22;;
73585;SDS011;61865;50.232;18.614;2023-02-01T02:05:08;3.50;;;2.72;;
73585;SDS011;61865;50.232;18.614;2023-02-01T02:07:31;10.27;;;2.63;;
73585;SDS011;61865;50.232;18.614;2023-02-01T02:09:57;4.07;;;2.13;;
73585;SDS011;61865;50.232;18.614;2023-02-01T02:12:19;4.20;;;2.65;;
73585;SDS011;61865;50.232;18.614;2023-02-01T02:14:42;5.00;;;2.20;;
73585;SDS011;61865;50.232;18.614;2023-02-01T02:17:14;2.20;;;2.00;;
73585;SDS011;61865;50.232;18.614;2023-02-01T02:20:05;3.28;;;2.42;;
73585;SDS011;61865;50.232;18.614;2023-02-01T02:23:01;6.70;;;2.72;;
73585;SDS011;61865;50.232;18.614;2023-02-01T02:28:51;7.30;;;4.78;;
73585;SDS011;61865;50.232;18.614;2023-02-01T02:34:28;7.65;;;5.10;;
73585;SDS011;61865;50.232;18.614;2023-02-01T02:36:58;8.80;;;4.72;;
73585;SDS011;61865;50.232;18.614;2023-02-01T02:39:28;5.20;;;4.22;;
73585;SDS011;61865;50.232;18.614;2023-02-01T02:41:58;5.40;;;3.55;;
73585;SDS011;61865;50.232;18.614;2023-02-01T02:44:45;4.32;;;2.85;;
73585;SDS011;61865;50.232;18.614;2023-02-01T02:47:28;4.65;;;2.90;;
73585;SDS011;61865;50.232;18.614;2023-02-01T02:50:04;5.50;;;2.83;;
73585;SDS011;61865;50.232;18.614;2023-02-01T02:52:51;2.92;;;2.38;;
73585;SDS011;61865;50.232;18.614;2023-02-01T02:55:40;3.20;;;2.55;;
73585;SDS011;61865;50.232;18.614;2023-02-01T02:58:04;2.72;;;2.40;;
73585;SDS011;61865;50.232;18.614;2023-02-01T03:00:45;4.07;;;2.47;;
73585;SDS011;61865;50.232;18.614;2023-02-01T03:03:25;3.10;;;2.50;;
73585;SDS011;61865;50.232;18.614;2023-02-01T03:06:08;5.45;;;2.38;;
73585;SDS011;61865;50.232;18.614;2023-02-01T03:08:35;3.85;;;2.35;;
73585;SDS011;61865;50.232;18.614;2023-02-01T03:10:58;2.95;;;2.40;;
73585;SDS011;61865;50.232;18.614;2023-02-01T03:13:28;2.53;;;2.17;;
73585;SDS011;61865;50.232;18.614;2023-02-01T03:15:57;6.15;;;2.15;;
73585;SDS011;61865;50.232;18.614;2023-02-01T03:18:26;4.05;;;2.15;;
73585;SDS011;61865;50.232;18.614;2023-02-01T03:20:53;2.33;;;2.08;;
73585;SDS011;61865;50.232;18.614;2023-02-01T03:23:19;4.18;;;2.70;;
73585;SDS011;61865;50.232;18.614;2023-02-01T03:25:45;4.88;;;3.13;;
73585;SDS011;61865;50.232;18.614;2023-02-01T03:28:11;3.25;;;2.10;;
73585;SDS011;61865;50.232;18.614;2023-02-01T03:30:34;8.52;;;3.20;;
73585;SDS011;61865;50.232;18.614;2023-02-01T03:32:59;7.63;;;2.22;;
73585;SDS011;61865;50.232;18.614;2023-02-01T03:35:23;3.97;;;2.15;;
73585;SDS011;61865;50.232;18.614;2023-02-01T03:37:49;4.57;;;3.50;;
73585;SDS011;61865;50.232;18.614;2023-02-01T03:40:15;4.50;;;2.72;;
73585;SDS011;61865;50.232;18.614;2023-02-01T03:42:40;2.90;;;2.10;;
73585;SDS011;61865;50.232;18.614;2023-02-01T03:45:09;6.38;;;2.70;;
73585;SDS011;61865;50.232;18.614;2023-02-01T03:47:35;6.15;;;3.58;;
73585;SDS011;61865;50.232;18.614;2023-02-01T03:50:02;3.92;;;3.30;;
73585;SDS011;61865;50.232;18.614;2023-02-01T03:52:28;9.48;;;3.10;;
73585;SDS011;61865;50.232;18.614;2023-02-01T03:54:54;4.15;;;2.92;;
73585;SDS011;61865;50.232;18.614;2023-02-01T03:57:19;4.07;;;2.75;;
73585;SDS011;61865;50.232;18.614;2023-02-01T03:59:46;3.35;;;2.75;;
73585;SDS011;61865;50.232;18.614;2023-02-01T04:02:08;5.68;;;2.88;;
73585;SDS011;61865;50.232;18.614;2023-02-01T04:04:30;4.18;;;2.70;;
73585;SDS011;61865;50.232;18.614;2023-02-01T04:06:52;3.35;;;2.72;;
73585;SDS011;61865;50.232;18.614;2023-02-01T04:09:14;5.70;;;2.47;;
73585;SDS011;61865;50.232;18.614;2023-02-01T04:11:36;3.88;;;2.60;;
73585;SDS011;61865;50.232;18.614;2023-02-01T04:14:00;7.82;;;2.47;;
73585;SDS011;61865;50.232;18.614;2023-02-01T04:16:24;3.47;;;2.50;;
73585;SDS011;61865;50.232;18.614;2023-02-01T04:18:46;3.50;;;2.42;;
73585;SDS011;61865;50.232;18.614;2023-02-01T04:21:08;4.78;;;2.90;;
73585;SDS011;61865;50.232;18.614;2023-02-01T04:23:30;4.25;;;2.40;;
73585;SDS011;61865;50.232;18.614;2023-02-01T04:25:52;3.78;;;2.65;;
73585;SDS011;61865;50.232;18.614;2023-02-01T04:28:15;4.30;;;3.15;;
73585;SDS011;61865;50.232;18.614;2023-02-01T04:30:39;7.88;;;3.50;;
73585;SDS011;61865;50.232;18.614;2023-02-01T04:33:01;5.07;;;3.42;;
73585;SDS011;61865;50.232;18.614;2023-02-01T04:35:26;3.95;;;3.15;;
73585;SDS011;61865;50.232;18.614;2023-02-01T04:37:48;5.35;;;3.35;;
73585;SDS011;61865;50.232;18.614;2023-02-01T04:40:10;8.00;;;3.97;;
73585;SDS011;61865;50.232;18.614;2023-02-01T04:42:33;10.07;;;3.95;;
73585;SDS011;61865;50.232;18.614;2023-02-01T04:44:54;7.25;;;4.05;;
73585;SDS011;61865;50.232;18.614;2023-02-01T04:47:18;6.20;;;4.03;;
73585;SDS011;61865;50.232;18.614;2023-02-01T04:49:39;10.30;;;4.68;;
73585;SDS011;61865;50.232;18.614;2023-02-01T04:52:02;5.90;;;4.15;;
73585;SDS011;61865;50.232;18.614;2023-02-01T04:54:24;9.40;;;5.13;;
73585;SDS011;61865;50.232;18.614;2023-02-01T04:56:46;4.93;;;3.45;;
73585;SDS011;61865;50.232;18.614;2023-02-01T04:59:09;4.88;;;3.42;;
73585;SDS011;61865;50.232;18.614;2023-02-01T05:01:32;11.65;;;4.25;;
73585;SDS011;61865;50.232;18.614;2023-02-01T05:03:55;6.50;;;3.33;;
73585;SDS011;61865;50.232;18.614;2023-02-01T05:06:17;13.45;;;4.25;;
73585;SDS011;61865;50.232;18.614;2023-02-01T05:08:39;9.77;;;3.80;;
73585;SDS011;61865;50.232;18.614;2023-02-01T05:11:01;7.78;;;3.53;;
73585;SDS011;61865;50.232;18.614;2023-02-01T05:13:23;7.32;;;3.17;;
73585;SDS011;61865;50.232;18.614;2023-02-01T05:16:03;4.20;;;2.60;;
73585;SDS011;61865;50.232;18.614;2023-02-01T05:18:26;9.32;;;3.42;;
73585;SDS011;61865;50.232;18.614;2023-02-01T05:20:49;7.45;;;3.30;;
73585;SDS011;61865;50.232;18.614;2023-02-01T05:23:11;7.85;;;3.47;;
73585;SDS011;61865;50.232;18.614;2023-02-01T05:25:33;5.95;;;3.00;;
73585;SDS011;61865;50.232;18.614;2023-02-01T05:27:55;8.55;;;2.70;;
73585;SDS011;61865;50.232;18.614;2023-02-01T05:30:17;6.05;;;2.83;;
73585;SDS011;61865;50.232;18.614;2023-02-01T05:32:39;7.38;;;2.97;;
73585;SDS011;61865;50.232;18.614;2023-02-01T05:35:01;8.68;;;3.30;;
73585;SDS011;61865;50.232;18.614;2023-02-01T05:37:24;10.65;;;3.42;;
73585;SDS011;61865;50.232;18.614;2023-02-01T05:39:46;9.88;;;2.97;;
73585;SDS011;61865;50.232;18.614;2023-02-01T05:42:08;7.07;;;3.40;;
73585;SDS011;61865;50.232;18.614;2023-02-01T05:44:30;7.70;;;3.25;;
73585;SDS011;61865;50.232;18.614;2023-02-01T05:46:52;8.15;;;3.08;;
73585;SDS011;61865;50.232;18.614;2023-02-01T05:49:14;14.70;;;5.15;;
73585;SDS011;61865;50.232;18.614;2023-02-01T05:51:36;20.60;;;8.63;;
73585;SDS011;61865;50.232;18.614;2023-02-01T05:53:59;25.70;;;10.88;;
73585;SDS011;61865;50.232;18.614;2023-02-01T05:56:21;19.92;;;9.38;;
73585;SDS011;61865;50.232;18.614;2023-02-01T05:58:43;23.65;;;10.88;;
73585;SDS011;61865;50.232;18.614;2023-02-01T06:01:05;25.95;;;10.88;;
73585;SDS011;61865;50.232;18.614;2023-02-01T06:03:27;17.02;;;6.30;;
73585;SDS011;61865;50.232;18.614;2023-02-01T06:05:49;15.65;;;8.73;;
73585;SDS011;61865;50.232;18.614;2023-02-01T06:08:11;14.80;;;6.82;;
73585;SDS011;61865;50.232;18.614;2023-02-01T06:10:34;12.77;;;4.85;;
73585;SDS011;61865;50.232;18.614;2023-02-01T06:12:56;8.95;;;4.10;;
73585;SDS011;61865;50.232;18.614;2023-02-01T06:15:18;10.85;;;4.30;;
73585;SDS011;61865;50.232;18.614;2023-02-01T06:17:40;11.52;;;4.30;;
73585;SDS011;61865;50.232;18.614;2023-02-01T06:20:03;13.65;;;4.40;;
73585;SDS011;61865;50.232;18.614;2023-02-01T06:22:26;9.90;;;4.53;;
73585;SDS011;61865;50.232;18.614;2023-02-01T06:24:48;10.20;;;4.28;;
73585;SDS011;61865;50.232;18.614;2023-02-01T06:27:11;13.07;;;5.28;;
73585;SDS011;61865;50.232;18.614;2023-02-01T06:29:34;13.57;;;6.43;;
73585;SDS011;61865;50.232;18.614;2023-02-01T06:31:56;15.27;;;6.78;;
73585;SDS011;61865;50.232;18.614;2023-02-01T06:34:18;18.40;;;6.25;;
73585;SDS011;61865;50.232;18.614;2023-02-01T06:36:42;17.38;;;6.55;;
73585;SDS011;61865;50.232;18.614;2023-02-01T06:39:04;11.60;;;5.03;;
73585;SDS011;61865;50.232;18.614;2023-02-01T06:41:26;16.33;;;5.50;;
73585;SDS011;61865;50.232;18.614;2023-02-01T06:43:49;13.60;;;5.72;;
73585;SDS011;61865;50.232;18.614;2023-02-01T06:46:11;10.90;;;4.25;;
73585;SDS011;61865;50.232;18.614;2023-02-01T06:48:34;15.60;;;5.40;;
73585;SDS011;61865;50.232;18.614;2023-02-01T06:50:56;19.02;;;5.88;;
73585;SDS011;61865;50.232;18.614;2023-02-01T06:53:18;12.98;;;5.50;;
73585;SDS011;61865;50.232;18.614;2023-02-01T06:55:40;13.65;;;5.72;;
73585;SDS011;61865;50.232;18.614;2023-02-01T06:58:02;18.23;;;5.53;;
73585;SDS011;61865;50.232;18.614;2023-02-01T07:00:25;23.38;;;7.93;;
73585;SDS011;61865;50.232;18.614;2023-02-01T07:02:47;21.92;;;6.28;;
73585;SDS011;61865;50.232;18.614;2023-02-01T07:05:09;15.35;;;5.43;;
73585;SDS011;61865;50.232;18.614;2023-02-01T07:07:31;20.30;;;5.28;;
73585;SDS011;61865;50.232;18.614;2023-02-01T07:09:53;18.98;;;6.18;;
73585;SDS011;61865;50.232;18.614;2023-02-01T07:12:14;13.10;;;5.97;;
73585;SDS011;61865;50.232;18.614;2023-02-01T07:14:36;14.13;;;6.38;;
73585;SDS011;61865;50.232;18.614;2023-02-01T07:17:00;21.73;;;7.05;;
73585;SDS011;61865;50.232;18.614;2023-02-01T07:19:21;14.15;;;7.10;;
73585;SDS011;61865;50.232;18.614;2023-02-01T07:21:43;19.25;;;8.20;;
73585;SDS011;61865;50.232;18.614;2023-02-01T07:24:05;18.77;;;6.72;;
73585;SDS011;61865;50.232;18.614;2023-02-01T07:26:27;14.07;;;7.25;;
73585;SDS011;61865;50.232;18.614;2023-02-01T07:28:49;16.17;;;7.07;;
73585;SDS011;61865;50.232;18.614;2023-02-01T07:31:12;18.42;;;7.55;;
73585;SDS011;61865;50.232;18.614;2023-02-01T07:33:39;15.73;;;6.78;;
73585;SDS011;61865;50.232;18.614;2023-02-01T07:36:02;18.70;;;7.22;;
73585;SDS011;61865;50.232;18.614;2023-02-01T07:38:25;22.45;;;6.57;;
73585;SDS011;61865;50.232;18.614;2023-02-01T07:40:48;17.38;;;7.05;;
73585;SDS011;61865;50.232;18.614;2023-02-01T07:43:10;26.98;;;10.10;;
73585;SDS011;61865;50.232;18.614;2023-02-01T07:45:32;21.80;;;8.18;;
73585;SDS011;61865;50.232;18.614;2023-02-01T07:47:54;17.13;;;7.45;;
73585;SDS011;61865;50.232;18.614;2023-02-01T07:50:17;13.48;;;6.10;;
73585;SDS011;61865;50.232;18.614;2023-02-01T07:52:39;18.98;;;8.30;;
73585;SDS011;61865;50.232;18.614;2023-02-01T07:55:02;20.45;;;9.43;;
73585;SDS011;61865;50.232;18.614;2023-02-01T07:57:24;31.23;;;11.25;;
73585;SDS011;61865;50.232;18.614;2023-02-01T07:59:46;17.67;;;8.27;;
73585;SDS011;61865;50.232;18.614;2023-02-01T08:02:21;20.50;;;7.65;;
73585;SDS011;61865;50.232;18.614;2023-02-01T08:04:43;15.10;;;7.28;;
73585;SDS011;61865;50.232;18.614;2023-02-01T08:07:07;21.40;;;8.52;;
73585;SDS011;61865;50.232;18.614;2023-02-01T08:09:28;15.73;;;7.13;;
73585;SDS011;61865;50.232;18.614;2023-02-01T08:11:51;23.23;;;7.50;;
73585;SDS011;61865;50.232;18.614;2023-02-01T08:14:13;23.88;;;8.30;;
73585;SDS011;61865;50.232;18.614;2023-02-01T08:16:35;25.20;;;9.25;;
73585;SDS011;61865;50.232;18.614;2023-02-01T08:18:57;27.00;;;10.02;;
73585;SDS011;61865;50.232;18.614;2023-02-01T08:21:20;32.10;;;11.50;;
73585;SDS011;61865;50.232;18.614;2023-02-01T08:23:45;23.85;;;8.43;;
73585;SDS011;61865;50.232;18.614;2023-02-01T08:26:07;19.85;;;7.78;;
73585;SDS011;61865;50.232;18.614;2023-02-01T08:28:31;18.08;;;6.63;;
73585;SDS011;61865;50.232;18.614;2023-02-01T08:30:53;22.63;;;8.30;;
73585;SDS011;61865;50.232;18.614;2023-02-01T08:33:15;28.25;;;11.10;;
73585;SDS011;61865;50.232;18.614;2023-02-01T08:35:37;21.63;;;8.23;;
73585;SDS011;61865;50.232;18.614;2023-02-01T08:37:59;21.00;;;9.57;;
73585;SDS011;61865;50.232;18.614;2023-02-01T08:40:23;23.63;;;11.40;;
73585;SDS011;61865;50.232;18.614;2023-02-01T08:42:44;19.25;;;8.32;;
73585;SDS011;61865;50.232;18.614;2023-02-01T08:45:12;16.35;;;7.65;;
73585;SDS011;61865;50.232;18.614;2023-02-01T08:47:34;14.05;;;6.55;;
73585;SDS011;61865;50.232;18.614;2023-02-01T08:49:56;17.05;;;8.07;;
73585;SDS011;61865;50.232;18.614;2023-02-01T08:52:18;14.23;;;6.90;;
73585;SDS011;61865;50.232;18.614;2023-02-01T08:54:40;13.88;;;6.22;;
73585;SDS011;61865;50.232;18.614;2023-02-01T08:57:03;11.00;;;6.25;;
73585;SDS011;61865;50.232;18.614;2023-02-01T08:59:25;11.23;;;5.95;;
73585;SDS011;61865;50.232;18.614;2023-02-01T09:01:47;20.58;;;6.97;;
73585;SDS011;61865;50.232;18.614;2023-02-01T09:04:09;20.65;;;7.82;;
73585;SDS011;61865;50.232;18.614;2023-02-01T09:06:31;20.80;;;8.85;;
73585;SDS011;61865;50.232;18.614;2023-02-01T09:08:53;14.77;;;7.43;;
73585;SDS011;61865;50.232;18.614;2023-02-01T09:11:15;14.43;;;6.55;;
73585;SDS011;61865;50.232;18.614;2023-02-01T09:13:40;19.90;;;7.15;;
73585;SDS011;61865;50.232;18.614;2023-02-01T09:16:03;19.35;;;8.45;;
73585;SDS011;61865;50.232;18.614;2023-02-01T09:18:25;21.17;;;8.55;;
73585;SDS011;61865;50.232;18.614;2023-02-01T09:20:46;17.83;;;8.50;;
73585;SDS011;61865;50.232;18.614;2023-02-01T09:23:08;22.48;;;8.55;;
73585;SDS011;61865;50.232;18.614;2023-02-01T09:25:30;18.88;;;6.95;;
73585;SDS011;61865;50.232;18.614;2023-02-01T09:27:52;15.27;;;7.82;;
73585;SDS011;61865;50.232;18.614;2023-02-01T09:30:16;17.90;;;7.90;;
73585;SDS011;61865;50.232;18.614;2023-02-01T09:32:38;15.02;;;6.68;;
73585;SDS011;61865;50.232;18.614;2023-02-01T09:35:00;17.92;;;7.65;;
73585;SDS011;61865;50.232;18.614;2023-02-01T09:37:22;21.27;;;7.82;;
73585;SDS011;61865;50.232;18.614;2023-02-01T09:39:44;14.50;;;6.72;;
73585;SDS011;61865;50.232;18.614;2023-02-01T09:42:08;17.13;;;6.35;;
73585;SDS011;61865;50.232;18.614;2023-02-01T09:44:48;12.15;;;6.70;;
73585;SDS011;61865;50.232;18.614;2023-02-01T09:47:20;19.85;;;7.55;;
73585;SDS011;61865;50.232;18.614;2023-02-01T09:49:47;14.80;;;6.30;;
73585;SDS011;61865;50.232;18.614;2023-02-01T09:52:14;17.83;;;6.22;;
73585;SDS011;61865;50.232;18.614;2023-02-01T09:54:39;13.02;;;5.60;;
73585;SDS011;61865;50.232;18.614;2023-02-01T09:57:06;13.05;;;6.75;;
73585;SDS011;61865;50.232;18.614;2023-02-01T09:59:34;12.70;;;5.93;;
73585;SDS011;61865;50.232;18.614;2023-02-01T10:02:01;11.77;;;6.10;;
73585;SDS011;61865;50.232;18.614;2023-02-01T10:04:26;15.25;;;6.78;;
73585;SDS011;61865;50.232;18.614;2023-02-01T10:07:00;25.92;;;9.63;;
73585;SDS011;61865;50.232;18.614;2023-02-01T10:09:42;18.75;;;6.97;;
73585;SDS011;61865;50.232;18.614;2023-02-01T10:15:23;14.23;;;5.70;;
73585;SDS011;61865;50.232;18.614;2023-02-01T10:17:56;21.95;;;8.82;;
73585;SDS011;61865;50.232;18.614;2023-02-01T10:20:35;25.58;;;9.00;;
73585;SDS011;61865;50.232;18.614;2023-02-01T10:23:06;24.42;;;7.00;;
73585;SDS011;61865;50.232;18.614;2023-02-01T10:25:41;14.45;;;5.82;;
73585;SDS011;61865;50.232;18.614;2023-02-01T10:28:08;17.30;;;6.60;;
73585;SDS011;61865;50.232;18.614;2023-02-01T10:30:37;30.90;;;9.95;;
73585;SDS011;61865;50.232;18.614;2023-02-01T10:33:07;20.83;;;8.75;;
73585;SDS011;61865;50.232;18.614;2023-02-01T10:35:38;22.90;;;7.65;;
73585;SDS011;61865;50.232;18.614;2023-02-01T10:38:02;27.83;;;9.07;;
73585;SDS011;61865;50.232;18.614;2023-02-01T10:40:38;19.05;;;6.93;;
73585;SDS011;61865;50.232;18.614;2023-02-01T10:43:00;19.88;;;8.38;;
73585;SDS011;61865;50.232;18.614;2023-02-01T10:45:24;26.08;;;9.32;;
73585;SDS011;61865;50.232;18.614;2023-02-01T10:47:49;20.98;;;8.57;;
73585;SDS011;61865;50.232;18.614;2023-02-01T10:50:14;20.48;;;8.27;;
73585;SDS011;61865;50.232;18.614;2023-02-01T10:52:44;22.17;;;8.98;;
73585;SDS011;61865;50.232;18.614;2023-02-01T10:55:27;15.02;;;6.80;;
73585;SDS011;61865;50.232;18.614;2023-02-01T10:57:55;11.02;;;4.93;;
73585;SDS011;61865;50.232;18.614;2023-02-01T11:00:19;13.63;;;5.03;;
73585;SDS011;61865;50.232;18.614;2023-02-01T11:02:42;16.40;;;5.30;;
73585;SDS011;61865;50.232;18.614;2023-02-01T11:05:05;13.82;;;5.40;;
73585;SDS011;61865;50.232;18.614;2023-02-01T11:07:30;13.90;;;4.45;;
73585;SDS011;61865;50.232;18.614;2023-02-01T11:09:55;13.00;;;6.03;;
73585;SDS011;61865;50.232;18.614;2023-02-01T11:12:22;14.30;;;6.15;;
73585;SDS011;61865;50.232;18.614;2023-02-01T11:14:49;13.70;;;5.30;;
73585;SDS011;61865;50.232;18.614;2023-02-01T11:17:24;24.42;;;7.05;;
73585;SDS011;61865;50.232;18.614;2023-02-01T11:19:54;16.00;;;5.95;;
73585;SDS011;61865;50.232;18.614;2023-02-01T11:22:18;17.55;;;6.00;;
73585;SDS011;61865;50.232;18.614;2023-02-01T11:24:41;14.05;;;5.57;;
73585;SDS011;61865;50.232;18.614;2023-02-01T11:27:14;15.90;;;4.93;;
73585;SDS011;61865;50.232;18.614;2023-02-01T11:29:38;19.00;;;6.53;;
73585;SDS011;61865;50.232;18.614;2023-02-01T11:32:03;12.98;;;4.93;;
73585;SDS011;61865;50.232;18.614;2023-02-01T11:34:33;15.45;;;5.35;;
73585;SDS011;61865;50.232;18.614;2023-02-01T11:36:59;21.05;;;6.53;;
73585;SDS011;61865;50.232;18.614;2023-02-01T11:39:24;10.48;;;5.60;;
73585;SDS011;61865;50.232;18.614;2023-02-01T11:41:57;11.10;;;3.88;;
73585;SDS011;61865;50.232;18.614;2023-02-01T11:44:26;10.88;;;4.05;;
73585;SDS011;61865;50.232;18.614;2023-02-01T11:46:54;22.88;;;8.13;;
73585;SDS011;61865;50.232;18.614;2023-02-01T11:49:20;13.98;;;6.00;;
73585;SDS011;61865;50.232;18.614;2023-02-01T11:51:46;20.52;;;5.78;;
73585;SDS011;61865;50.232;18.614;2023-02-01T11:54:25;12.20;;;6.82;;
73585;SDS011;61865;50.232;18.614;2023-02-01T11:57:09;12.40;;;5.82;;
73585;SDS011;61865;50.232;18.614;2023-02-01T11:59:52;15.60;;;6.63;;
73585;SDS011;61865;50.232;18.614;2023-02-01T12:02:33;8.65;;;4.95;;
73585;SDS011;61865;50.232;18.614;2023-02-01T12:05:18;10.88;;;5.07;;
73585;SDS011;61865;50.232;18.614;2023-02-01T12:07:53;11.38;;;5.25;;
73585;SDS011;61865;50.232;18.614;2023-02-01T12:10:24;11.20;;;5.35;;
73585;SDS011;61865;50.232;18.614;2023-02-01T12:12:57;18.98;;;7.10;;
73585;SDS011;61865;50.232;18.614;2023-02-01T12:15:32;14.98;;;6.88;;
73585;SDS011;61865;50.232;18.614;2023-02-01T12:21:06;13.88;;;7.68;;
73585;SDS011;61865;50.232;18.614;2023-02-01T12:23:56;13.38;;;6.97;;
73585;SDS011;61865;50.232;18.614;2023-02-01T12:29:33;10.43;;;5.40;;
73585;SDS011;61865;50.232;18.614;2023-02-01T12:32:05;13.23;;;5.95;;
73585;SDS011;61865;50.232;18.614;2023-02-01T12:34:39;12.30;;;5.43;;
73585;SDS011;61865;50.232;18.614;2023-02-01T12:37:18;7.55;;;4.10;;
73585;SDS011;61865;50.232;18.614;2023-02-01T12:39:47;13.80;;;6.13;;
73585;SDS011;61865;50.232;18.614;2023-02-01T12:42:18;8.95;;;4.53;;
73585;SDS011;61865;50.232;18.614;2023-02-01T12:44:45;9.98;;;5.15;;
73585;SDS011;61865;50.232;18.614;2023-02-01T12:47:14;11.15;;;3.97;;
73585;SDS011;61865;50.232;18.614;2023-02-01T12:49:44;10.55;;;5.43;;
73585;SDS011;61865;50.232;18.614;2023-02-01T12:52:10;11.38;;;4.53;;
73585;SDS011;61865;50.232;18.614;2023-02-01T12:54:36;10.68;;;4.50;;
73585;SDS011;61865;50.232;18.614;2023-02-01T12:57:03;11.60;;;5.07;;
73585;SDS011;61865;50.232;18.614;2023-02-01T12:59:30;11.65;;;4.30;;
73585;SDS011;61865;50.232;18.614;2023-02-01T13:01:59;10.02;;;4.82;;
73585;SDS011;61865;50.232;18.614;2023-02-01T13:04:35;10.38;;;4.32;;
73585;SDS011;61865;50.232;18.614;2023-02-01T13:07:05;8.10;;;4.10;;
73585;SDS011;61865;50.232;18.614;2023-02-01T13:09:34;8.77;;;4.40;;
73585;SDS011;61865;50.232;18.614;2023-02-01T13:12:03;8.57;;;4.40;;
73585;SDS011;61865;50.232;18.614;2023-02-01T13:14:29;9.95;;;4.97;;
73585;SDS011;61865;50.232;18.614;2023-02-01T13:16:58;9.93;;;5.10;;
73585;SDS011;61865;50.232;18.614;2023-02-01T13:19:24;12.02;;;5.03;;
73585;SDS011;61865;50.232;18.614;2023-02-01T13:21:53;9.57;;;5.28;;
73585;SDS011;61865;50.232;18.614;2023-02-01T13:24:24;7.57;;;3.80;;
73585;SDS011;61865;50.232;18.614;2023-02-01T13:26:53;6.78;;;3.40;;
73585;SDS011;61865;50.232;18.614;2023-02-01T13:29:18;7.88;;;3.70;;
73585;SDS011;61865;50.232;18.614;2023-02-01T13:34:29;7.03;;;3.28;;
73585;SDS011;61865;50.232;18.614;2023-02-01T13:37:10;5.60;;;3.25;;
73585;SDS011;61865;50.232;18.614;2023-02-01T13:42:41;6.55;;;3.50;;
73585;SDS011;61865;50.232;18.614;2023-02-01T13:45:13;4.72;;;3.05;;
73585;SDS011;61865;50.232;18.614;2023-02-01T13:47:38;5.38;;;3.38;;
73585;SDS011;61865;50.232;18.614;2023-02-01T13:50:04;12.10;;;4.18;;
73585;SDS011;61865;50.232;18.614;2023-02-01T13:52:42;5.35;;;3.42;;
73585;SDS011;61865;50.232;18.614;2023-02-01T13:55:19;10.38;;;4.22;;
73585;SDS011;61865;50.232;18.614;2023-02-01T13:57:47;8.25;;;4.45;;
73585;SDS011;61865;50.232;18.614;2023-02-01T14:00:23;7.53;;;4.43;;
73585;SDS011;61865;50.232;18.614;2023-02-01T14:02:50;8.68;;;4.85;;
73585;SDS011;61865;50.232;18.614;2023-02-01T14:06:01;9.98;;;4.68;;
73585;SDS011;61865;50.232;18.614;2023-02-01T14:08:41;16.55;;;5.50;;
73585;SDS011;61865;50.232;18.614;2023-02-01T14:14:06;8.60;;;5.85;;
73585;SDS011;61865;50.232;18.614;2023-02-01T14:19:41;9.68;;;4.85;;
73585;SDS011;61865;50.232;18.614;2023-02-01T14:22:32;11.30;;;5.45;;
73585;SDS011;61865;50.232;18.614;2023-02-01T14:24:56;8.95;;;5.07;;
73585;SDS011;61865;50.232;18.614;2023-02-01T14:27:20;14.27;;;6.70;;
73585;SDS011;61865;50.232;18.614;2023-02-01T14:29:49;11.57;;;6.53;;
73585;SDS011;61865;50.232;18.614;2023-02-01T14:32:18;16.13;;;8.88;;
73585;SDS011;61865;50.232;18.614;2023-02-01T14:34:48;31.02;;;15.05;;
73585;SDS011;61865;50.232;18.614;2023-02-01T14:37:22;26.50;;;13.85;;
73585;SDS011;61865;50.232;18.614;2023-02-01T14:39:58;41.40;;;19.20;;
73585;SDS011;61865;50.232;18.614;2023-02-01T14:42:27;38.20;;;16.10;;
73585;SDS011;61865;50.232;18.614;2023-02-01T14:44:53;22.35;;;12.98;;
73585;SDS011;61865;50.232;18.614;2023-02-01T14:49:58;17.60;;;8.50;;